createdAt,value
2018-01-07T00:00:29.833Z,7.90
2018-01-07T00:01:29.828Z,7.20
2018-01-07T00:02:29.828Z,7.20
2018-01-07T00:03:29.828Z,6.90
2018-01-07T00:04:29.815Z,7.10
2018-01-07T00:05:29.819Z,7.50
2018-01-07T00:06:29.815Z,6.70
2018-01-07T00:07:29.802Z,6.90
2018-01-07T00:08:29.797Z,6.20
2018-01-07T00:09:29.797Z,6.20
2018-01-07T00:10:29.789Z,6.40
2018-01-07T00:11:29.794Z,6.10
2018-01-07T00:12:29.783Z,6.40
2018-01-07T00:13:29.774Z,5.90
2018-01-07T00:14:29.779Z,5.90
2018-01-07T00:15:29.771Z,5.90
2018-01-07T00:16:29.764Z,5.90
2018-01-07T00:17:29.756Z,6.40
2018-01-07T00:18:29.756Z,6.40
2018-01-07T00:19:29.747Z,6.50
2018-01-07T00:20:29.742Z,6.60
2018-01-07T00:21:29.742Z,5.50
2018-01-07T00:22:29.738Z,5.40
2018-01-07T00:23:29.742Z,5.50
2018-01-07T00:24:29.728Z,5.10
2018-01-07T00:25:29.722Z,5.30
2018-01-07T00:26:29.724Z,5.70
2018-01-07T00:27:29.718Z,5.70
2018-01-07T00:28:29.704Z,6.50
2018-01-07T00:29:29.699Z,6.70
2018-01-07T00:30:29.699Z,7.00
2018-01-07T00:31:29.699Z,6.30
2018-01-07T00:32:29.693Z,7.80
2018-01-07T00:33:29.691Z,6.70
2018-01-07T00:34:29.680Z,6.30
2018-01-07T00:35:29.672Z,6.50
2018-01-07T00:36:29.675Z,6.80
2018-01-07T00:37:29.647Z,7.00
2018-01-07T00:38:29.661Z,6.90
2018-01-07T00:39:29.675Z,6.60
2018-01-07T00:40:29.657Z,7.10
2018-01-07T00:41:29.632Z,7.00
2018-01-07T00:42:29.647Z,7.00
2018-01-07T00:43:29.619Z,6.80
2018-01-07T00:44:29.627Z,7.40
2018-01-07T00:45:29.632Z,7.00
2018-01-07T00:46:29.609Z,7.50
2018-01-07T00:47:29.623Z,6.90
2018-01-07T00:48:29.599Z,7.10
2018-01-07T00:49:29.590Z,7.70
2018-01-07T00:50:29.590Z,7.60
2018-01-07T00:51:29.604Z,8.10
2018-01-07T00:52:29.599Z,7.40
2018-01-07T00:53:29.595Z,7.50
2018-01-07T00:54:29.560Z,6.80
2018-01-07T00:55:29.556Z,7.50
2018-01-07T00:56:29.576Z,7.40
2018-01-07T00:57:29.572Z,7.90
2018-01-07T00:58:29.571Z,7.10
2018-01-07T00:59:29.567Z,6.60
2018-01-07T01:00:29.562Z,6.80
2018-01-07T01:01:29.557Z,6.50
2018-01-07T01:02:29.542Z,6.80
2018-01-07T01:03:29.548Z,6.60
2018-01-07T01:04:29.520Z,6.60
2018-01-07T01:05:29.519Z,6.20
2018-01-07T01:06:29.524Z,6.70
2018-01-07T01:07:29.507Z,7.10
2018-01-07T01:08:29.501Z,6.50
2018-01-07T01:09:29.515Z,6.20
2018-01-07T01:10:29.496Z,6.00
2018-01-07T01:11:29.511Z,5.70
2018-01-07T01:12:29.495Z,6.20
2018-01-07T01:13:29.492Z,5.90
2018-01-07T01:14:29.482Z,6.00
2018-01-07T01:15:29.491Z,5.90
2018-01-07T01:16:29.485Z,5.50
2018-01-07T01:17:29.483Z,5.70
2018-01-07T01:18:29.476Z,5.70
2018-01-07T01:19:29.462Z,6.00
2018-01-07T01:20:29.468Z,5.70
2018-01-07T01:21:29.458Z,5.60
2018-01-07T01:22:29.457Z,5.60
2018-01-07T01:23:29.450Z,5.30
2018-01-07T01:24:29.439Z,5.40
2018-01-07T01:25:29.438Z,5.80
2018-01-07T01:26:29.438Z,5.30
2018-01-07T01:27:29.420Z,5.40
2018-01-07T01:28:29.424Z,5.20
2018-01-07T01:29:29.420Z,5.70
2018-01-07T01:30:29.415Z,5.50
2018-01-07T01:31:29.409Z,6.00
2018-01-07T01:32:29.398Z,6.10
2018-01-07T01:33:29.395Z,7.30
2018-01-07T01:34:29.391Z,7.40
2018-01-07T01:35:29.391Z,7.20
2018-01-07T01:36:29.385Z,7.80
2018-01-07T01:37:29.371Z,7.90
2018-01-07T01:38:29.376Z,7.40
2018-01-07T01:39:29.376Z,7.80
2018-01-07T01:40:29.360Z,7.80
2018-01-07T01:41:29.362Z,7.80
2018-01-07T01:42:29.357Z,8.30
2018-01-07T01:43:29.357Z,8.10
2018-01-07T01:44:29.342Z,8.30
2018-01-07T01:45:29.344Z,7.60
2018-01-07T01:46:29.334Z,7.30
2018-01-07T01:47:29.310Z,7.80
2018-01-07T01:48:29.333Z,7.90
2018-01-07T01:49:29.310Z,7.30
2018-01-07T01:50:29.315Z,7.40
2018-01-07T01:51:29.301Z,7.70
2018-01-07T01:52:29.286Z,7.30
2018-01-07T01:53:29.291Z,7.70
2018-01-07T01:54:29.283Z,7.10
2018-01-07T01:55:29.273Z,7.30
2018-01-07T01:56:29.266Z,8.30
2018-01-07T01:57:29.292Z,8.30
2018-01-07T01:58:29.288Z,9.40
2018-01-07T01:59:29.264Z,8.20
2018-01-07T02:00:29.250Z,8.60
2018-01-07T02:01:29.254Z,8.20
2018-01-07T02:02:29.269Z,8.80
2018-01-07T02:03:29.282Z,8.80
2018-01-07T02:04:29.236Z,8.50
2018-01-07T02:05:29.245Z,8.50
2018-01-07T02:06:29.241Z,8.30
2018-01-07T02:07:29.238Z,8.60
2018-01-07T02:08:29.227Z,8.60
2018-01-07T02:09:29.214Z,9.10
2018-01-07T02:10:29.224Z,8.90
2018-01-07T02:11:29.209Z,9.20
2018-01-07T02:12:29.218Z,9.00
2018-01-07T02:13:29.188Z,8.90
2018-01-07T02:14:29.194Z,9.10
2018-01-07T02:15:29.206Z,9.70
2018-01-07T02:16:29.176Z,9.60
2018-01-07T02:17:29.181Z,9.30
2018-01-07T02:18:29.167Z,10.00
2018-01-07T02:19:29.188Z,9.30
2018-01-07T02:20:29.178Z,9.60
2018-01-07T02:21:29.274Z,9.30
2018-01-07T02:22:29.164Z,9.60
2018-01-07T02:23:29.169Z,9.90
2018-01-07T02:24:29.164Z,8.70
2018-01-07T02:25:29.151Z,9.40
2018-01-07T02:26:29.145Z,8.60
2018-01-07T02:27:29.150Z,8.80
2018-01-07T02:28:29.136Z,8.90
2018-01-07T02:29:29.136Z,8.30
2018-01-07T02:30:29.137Z,8.90
2018-01-07T02:31:29.132Z,9.50
2018-01-07T02:32:29.123Z,8.70
2018-01-07T02:33:29.122Z,8.80
2018-01-07T02:34:29.118Z,8.20
2018-01-07T02:35:29.113Z,7.30
2018-01-07T02:36:29.113Z,7.50
2018-01-07T02:37:29.109Z,8.00
2018-01-07T02:38:29.096Z,7.20
2018-01-07T02:39:29.090Z,7.70
2018-01-07T02:40:29.092Z,7.10
2018-01-07T02:41:29.084Z,7.60
2018-01-07T02:42:29.076Z,7.50
2018-01-07T02:43:29.075Z,7.30
2018-01-07T02:44:29.075Z,7.60
2018-01-07T02:45:29.066Z,7.60
2018-01-07T02:46:29.061Z,8.00
2018-01-07T02:47:29.047Z,8.20
2018-01-07T02:48:29.047Z,7.50
2018-01-07T02:49:29.042Z,8.30
2018-01-07T02:50:29.047Z,7.90
2018-01-07T02:51:29.033Z,8.30
2018-01-07T02:52:29.032Z,8.30
2018-01-07T02:53:29.023Z,9.20
2018-01-07T02:54:29.029Z,8.90
2018-01-07T02:55:29.023Z,9.20
2018-01-07T02:56:29.013Z,9.20
2018-01-07T02:57:29.012Z,9.10
2018-01-07T02:58:29.004Z,9.10
2018-01-07T02:59:29.004Z,9.10
2018-01-07T03:00:28.988Z,9.20
2018-01-07T03:01:28.993Z,8.80
2018-01-07T03:02:28.989Z,9.60
2018-01-07T03:03:28.984Z,9.70
2018-01-07T03:04:28.969Z,10.40
2018-01-07T03:05:28.975Z,10.10
2018-01-07T03:06:28.966Z,10.60
2018-01-07T03:07:28.966Z,11.00
2018-01-07T03:08:28.956Z,10.50
2018-01-07T03:09:28.951Z,10.50
2018-01-07T03:10:28.963Z,10.00
2018-01-07T03:11:28.946Z,11.60
2018-01-07T03:12:28.937Z,11.50
2018-01-07T03:13:28.937Z,11.40
2018-01-07T03:14:28.928Z,11.10
2018-01-07T03:15:28.928Z,11.10
2018-01-07T03:16:28.922Z,10.70
2018-01-07T03:17:28.898Z,11.20
2018-01-07T03:18:28.913Z,11.00
2018-01-07T03:19:28.909Z,11.20
2018-01-07T03:20:28.903Z,11.60
2018-01-07T03:21:28.998Z,13.40
2018-01-07T03:22:28.894Z,13.40
2018-01-07T03:23:28.870Z,13.40
2018-01-07T03:24:28.866Z,13.50
2018-01-07T03:25:28.860Z,12.50
2018-01-07T03:26:28.856Z,13.00
2018-01-07T03:27:28.851Z,12.60
2018-01-07T03:28:28.846Z,12.70
2018-01-07T03:29:28.860Z,13.20
2018-01-07T03:30:28.843Z,13.50
2018-01-07T03:31:28.833Z,13.20
2018-01-07T03:32:28.826Z,13.90
2018-01-07T03:33:28.822Z,14.20
2018-01-07T03:34:28.817Z,13.80
2018-01-07T03:35:28.813Z,13.60
2018-01-07T03:36:28.807Z,13.90
2018-01-07T03:37:28.802Z,13.80
2018-01-07T03:38:28.798Z,12.70
2018-01-07T03:39:28.795Z,12.10
2018-01-07T03:40:28.784Z,12.60
2018-01-07T03:41:28.784Z,12.50
2018-01-07T03:42:28.778Z,12.30
2018-01-07T03:43:28.774Z,12.40
2018-01-07T03:44:28.769Z,12.80
2018-01-07T03:45:28.764Z,13.10
2018-01-07T03:46:28.760Z,12.30
2018-01-07T03:47:28.755Z,11.80
2018-01-07T03:48:28.745Z,11.90
2018-01-07T03:49:28.745Z,12.80
2018-01-07T03:50:28.740Z,12.30
2018-01-07T03:51:28.736Z,11.90
2018-01-07T03:52:28.730Z,11.90
2018-01-07T03:53:28.734Z,12.20
2018-01-07T03:54:28.722Z,10.80
2018-01-07T03:55:28.717Z,11.70
2018-01-07T03:56:28.712Z,11.60
2018-01-07T03:57:28.707Z,12.90
2018-01-07T03:58:28.702Z,12.10
2018-01-07T03:59:28.694Z,13.10
2018-01-07T04:00:28.693Z,13.50
2018-01-07T04:01:28.688Z,12.60
2018-01-07T04:02:28.680Z,12.00
2018-01-07T04:03:28.679Z,11.80
2018-01-07T04:04:28.674Z,12.90
2018-01-07T04:05:28.669Z,11.80
2018-01-07T04:06:28.665Z,12.10
2018-01-07T04:07:28.660Z,12.00
2018-01-07T04:08:28.651Z,10.50
2018-01-07T04:09:28.647Z,10.60
2018-01-07T04:10:28.647Z,10.00
2018-01-07T04:11:28.638Z,9.80
2018-01-07T04:12:28.632Z,9.90
2018-01-07T04:13:28.632Z,10.60
2018-01-07T04:14:28.623Z,9.80
2018-01-07T04:15:28.622Z,9.30
2018-01-07T04:16:28.614Z,8.80
2018-01-07T04:17:28.613Z,9.40
2018-01-07T04:18:28.624Z,10.10
2018-01-07T04:19:28.603Z,8.90
2018-01-07T04:20:28.595Z,9.00
2018-01-07T04:21:28.591Z,9.40
2018-01-07T04:22:28.586Z,9.80
2018-01-07T04:23:28.581Z,9.30
2018-01-07T04:24:28.576Z,8.80
2018-01-07T04:25:28.576Z,9.90
2018-01-07T04:26:28.567Z,9.60
2018-01-07T04:27:28.562Z,9.40
2018-01-07T04:28:28.556Z,9.50
2018-01-07T04:29:28.556Z,9.90
2018-01-07T04:30:28.555Z,9.20
2018-01-07T04:31:28.543Z,8.90
2018-01-07T04:32:28.542Z,9.10
2018-01-07T04:33:28.533Z,9.00
2018-01-07T04:34:28.533Z,8.80
2018-01-07T04:35:28.524Z,9.40
2018-01-07T04:36:28.523Z,9.10
2018-01-07T04:37:28.519Z,9.60
2018-01-07T04:38:28.514Z,9.00
2018-01-07T04:39:28.505Z,8.70
2018-01-07T04:40:28.502Z,8.90
2018-01-07T04:41:28.500Z,8.90
2018-01-07T04:42:28.495Z,9.00
2018-01-07T04:43:28.487Z,9.10
2018-01-07T04:44:28.488Z,9.50
2018-01-07T04:45:28.478Z,9.70
2018-01-07T04:46:28.473Z,9.70
2018-01-07T04:47:28.468Z,9.30
2018-01-07T04:48:28.462Z,9.60
2018-01-07T04:49:28.458Z,9.70
2018-01-07T04:50:28.453Z,9.00
2018-01-07T04:51:28.486Z,9.10
2018-01-07T04:52:28.444Z,8.60
2018-01-07T04:53:28.439Z,8.40
2018-01-07T04:54:28.434Z,8.70
2018-01-07T04:55:28.430Z,8.50
2018-01-07T04:56:28.424Z,8.70
2018-01-07T04:57:28.421Z,8.80
2018-01-07T04:58:28.416Z,9.20
2018-01-07T04:59:28.412Z,9.10
2018-01-07T05:00:28.406Z,9.60
2018-01-07T05:01:28.401Z,8.80
2018-01-07T05:02:28.397Z,9.80
2018-01-07T05:03:28.393Z,9.90
2018-01-07T05:04:28.386Z,9.90
2018-01-07T05:05:28.386Z,9.70
2018-01-07T05:06:28.384Z,9.80
2018-01-07T05:07:28.373Z,10.20
2018-01-07T05:08:28.371Z,10.80
2018-01-07T05:09:28.362Z,10.20
2018-01-07T05:10:28.358Z,10.20
2018-01-07T05:11:28.354Z,10.60
2018-01-07T05:12:28.348Z,10.60
2018-01-07T05:13:28.343Z,11.20
2018-01-07T05:14:28.343Z,12.70
2018-01-07T05:15:28.338Z,12.50
2018-01-07T05:16:28.328Z,12.70
2018-01-07T05:17:28.324Z,13.40
2018-01-07T05:18:28.323Z,13.30
2018-01-07T05:19:28.314Z,14.40
2018-01-07T05:20:28.309Z,13.20
2018-01-07T05:21:28.403Z,12.90
2018-01-07T05:22:28.303Z,12.70
2018-01-07T05:23:28.298Z,12.00
2018-01-07T05:24:28.289Z,13.40
2018-01-07T05:25:28.284Z,14.10
2018-01-07T05:26:28.279Z,12.60
2018-01-07T05:27:28.275Z,13.60
2018-01-07T05:28:28.269Z,13.60
2018-01-07T05:29:28.268Z,13.20
2018-01-07T05:30:28.259Z,13.30
2018-01-07T05:31:28.255Z,13.20
2018-01-07T05:32:28.254Z,12.90
2018-01-07T05:33:28.249Z,13.20
2018-01-07T05:34:28.239Z,13.10
2018-01-07T05:35:28.235Z,13.30
2018-01-07T05:36:28.252Z,13.20
2018-01-07T05:37:28.224Z,13.70
2018-01-07T05:38:28.247Z,13.90
2018-01-07T05:39:28.237Z,13.20
2018-01-07T05:40:28.229Z,13.20
2018-01-07T05:41:28.224Z,13.70
2018-01-07T05:42:28.200Z,13.00
2018-01-07T05:43:28.196Z,13.20
2018-01-07T05:44:28.194Z,12.30
2018-01-07T05:45:28.204Z,13.00
2018-01-07T05:46:28.199Z,12.50
2018-01-07T05:47:28.180Z,13.10
2018-01-07T05:48:28.189Z,13.10
2018-01-07T05:49:28.189Z,12.00
2018-01-07T05:50:28.180Z,11.60
2018-01-07T05:51:28.174Z,10.90
2018-01-07T05:52:28.170Z,11.10
2018-01-07T05:53:28.165Z,10.90
2018-01-07T05:54:28.164Z,10.60
2018-01-07T05:55:28.156Z,10.10
2018-01-07T05:56:28.154Z,9.70
2018-01-07T05:57:28.149Z,10.00
2018-01-07T05:58:28.144Z,10.10
2018-01-07T05:59:28.139Z,9.40
2018-01-07T06:00:28.130Z,9.90
2018-01-07T06:01:28.132Z,9.30
2018-01-07T06:02:28.124Z,10.20
2018-01-07T06:03:28.111Z,9.00
2018-01-07T06:04:28.109Z,8.90
2018-01-07T06:05:28.105Z,9.70
2018-01-07T06:06:28.104Z,9.60
2018-01-07T06:07:28.095Z,9.50
2018-01-07T06:08:28.088Z,10.70
2018-01-07T06:09:28.084Z,10.30
2018-01-07T06:10:28.069Z,10.00
2018-01-07T06:11:28.065Z,9.60
2018-01-07T06:12:28.064Z,10.10
2018-01-07T06:13:28.053Z,9.60
2018-01-07T06:14:28.054Z,9.60
2018-01-07T06:15:28.049Z,9.20
2018-01-07T06:16:28.042Z,9.10
2018-01-07T06:17:28.037Z,8.30
2018-01-07T06:18:28.032Z,8.60
2018-01-07T06:19:28.027Z,8.40
2018-01-07T06:20:28.016Z,8.40
2018-01-07T06:21:28.016Z,8.30
2018-01-07T06:22:28.011Z,8.90
2018-01-07T06:23:28.001Z,7.90
2018-01-07T06:24:28.000Z,9.00
2018-01-07T06:25:27.994Z,8.90
2018-01-07T06:26:27.989Z,9.20
2018-01-07T06:27:27.984Z,8.50
2018-01-07T06:28:27.978Z,9.10
2018-01-07T06:29:27.968Z,8.30
2018-01-07T06:30:27.968Z,9.80
2018-01-07T06:31:27.963Z,10.20
2018-01-07T06:32:27.957Z,9.30
2018-01-07T06:33:27.952Z,10.00
2018-01-07T06:34:27.947Z,9.80
2018-01-07T06:35:27.937Z,9.20
2018-01-07T06:36:27.936Z,9.20
2018-01-07T06:37:27.931Z,9.60
2018-01-07T06:38:27.926Z,9.00
2018-01-07T06:39:27.916Z,8.90
2018-01-07T06:40:27.921Z,9.20
2018-01-07T06:41:27.910Z,8.80
2018-01-07T06:42:27.905Z,8.80
2018-01-07T06:43:27.904Z,8.10
2018-01-07T06:44:27.894Z,8.20
2018-01-07T06:45:27.894Z,7.50
2018-01-07T06:46:27.884Z,6.60
2018-01-07T06:47:27.880Z,7.10
2018-01-07T06:48:27.873Z,6.50
2018-01-07T06:49:27.872Z,6.80
2018-01-07T06:50:27.868Z,6.60
2018-01-07T06:51:27.863Z,6.70
2018-01-07T06:52:27.856Z,6.80
2018-01-07T06:53:27.852Z,5.50
2018-01-07T06:54:27.842Z,5.90
2018-01-07T06:55:27.842Z,5.70
2018-01-07T06:56:27.816Z,5.80
2018-01-07T06:57:27.828Z,6.60
2018-01-07T06:58:27.822Z,6.00
2018-01-07T06:59:27.805Z,5.40
2018-01-07T07:00:27.819Z,5.50
2018-01-07T07:01:27.795Z,5.80
2018-01-07T07:02:27.790Z,5.70
2018-01-07T07:03:27.780Z,5.30
2018-01-07T07:04:27.794Z,5.20
2018-01-07T07:05:27.773Z,5.10
2018-01-07T07:06:27.768Z,5.00
2018-01-07T07:07:27.778Z,5.00
2018-01-07T07:08:27.772Z,5.00
2018-01-07T07:09:27.748Z,5.10
2018-01-07T07:10:27.747Z,4.70
2018-01-07T07:11:27.758Z,4.80
2018-01-07T07:12:27.747Z,5.00
2018-01-07T07:13:27.742Z,4.50
2018-01-07T07:14:27.726Z,5.00
2018-01-07T07:15:27.737Z,4.90
2018-01-07T07:16:27.710Z,5.00
2018-01-07T07:17:27.721Z,4.50
2018-01-07T07:18:27.700Z,5.20
2018-01-07T07:19:27.710Z,5.10
2018-01-07T07:20:27.689Z,4.10
2018-01-07T07:21:27.699Z,4.50
2018-01-07T07:22:27.694Z,4.40
2018-01-07T07:23:27.690Z,3.70
2018-01-07T07:24:27.670Z,3.90
2018-01-07T07:25:27.667Z,4.10
2018-01-07T07:26:27.672Z,3.60
2018-01-07T07:27:27.672Z,3.70
2018-01-07T07:28:27.666Z,3.80
2018-01-07T07:29:27.656Z,3.50
2018-01-07T07:30:27.635Z,3.90
2018-01-07T07:31:27.632Z,3.70
2018-01-07T07:32:27.645Z,3.50
2018-01-07T07:33:27.635Z,3.40
2018-01-07T07:34:27.630Z,3.70
2018-01-07T07:35:27.629Z,3.40
2018-01-07T07:36:27.608Z,3.70
2018-01-07T07:37:27.603Z,3.20
2018-01-07T07:38:27.613Z,3.80
2018-01-07T07:39:27.607Z,3.60
2018-01-07T07:40:27.583Z,3.60
2018-01-07T07:41:27.596Z,3.70
2018-01-07T07:42:27.572Z,3.10
2018-01-07T07:43:27.586Z,3.70
2018-01-07T07:44:27.565Z,3.70
2018-01-07T07:45:27.578Z,3.30
2018-01-07T07:46:27.555Z,3.40
2018-01-07T07:47:27.561Z,3.50
2018-01-07T07:48:27.544Z,3.30
2018-01-07T07:49:27.539Z,3.80
2018-01-07T07:50:27.534Z,3.20
2018-01-07T07:51:27.529Z,3.10
2018-01-07T07:52:27.523Z,3.50
2018-01-07T07:53:27.534Z,3.60
2018-01-07T07:54:27.509Z,3.40
2018-01-07T07:55:27.508Z,3.30
2018-01-07T07:56:27.502Z,3.10
2018-01-07T07:57:27.598Z,3.50
2018-01-07T07:58:27.492Z,3.60
2018-01-07T07:59:27.489Z,3.30
2018-01-07T08:00:27.481Z,3.70
2018-01-07T08:01:27.477Z,3.60
2018-01-07T08:02:27.471Z,3.90
2018-01-07T08:03:27.466Z,3.00
2018-01-07T08:04:27.460Z,3.30
2018-01-07T08:05:27.470Z,3.30
2018-01-07T08:06:27.466Z,3.60
2018-01-07T08:07:27.445Z,3.50
2018-01-07T08:08:27.435Z,3.60
2018-01-07T08:09:27.453Z,3.40
2018-01-07T08:10:27.449Z,3.40
2018-01-07T08:11:27.443Z,3.80
2018-01-07T08:12:27.439Z,3.70
2018-01-07T08:13:27.413Z,3.20
2018-01-07T08:14:27.408Z,3.40
2018-01-07T08:15:27.403Z,3.70
2018-01-07T08:16:27.397Z,3.40
2018-01-07T08:17:27.412Z,4.00
2018-01-07T08:18:27.387Z,3.60
2018-01-07T08:19:27.401Z,3.30
2018-01-07T08:20:27.390Z,3.30
2018-01-07T08:21:27.490Z,3.20
2018-01-07T08:22:27.355Z,3.50
2018-01-07T08:23:27.357Z,3.40
2018-01-07T08:24:27.362Z,3.20
2018-01-07T08:25:27.345Z,2.90
2018-01-07T08:26:27.363Z,3.00
2018-01-07T08:27:27.458Z,2.90
2018-01-07T08:28:27.349Z,3.00
2018-01-07T08:29:27.317Z,2.90
2018-01-07T08:30:27.331Z,2.90
2018-01-07T08:31:27.337Z,2.90
2018-01-07T08:32:27.327Z,3.20
2018-01-07T08:33:27.322Z,3.20
2018-01-07T08:34:27.321Z,2.90
2018-01-07T08:35:27.312Z,3.40
2018-01-07T08:36:27.310Z,3.20
2018-01-07T08:37:27.300Z,2.90
2018-01-07T08:38:27.289Z,2.90
2018-01-07T08:39:27.295Z,2.80
2018-01-07T08:40:27.288Z,2.80
2018-01-07T08:41:27.283Z,2.40
2018-01-07T08:42:27.278Z,2.70
2018-01-07T08:43:27.269Z,2.50
2018-01-07T08:44:27.256Z,2.60
2018-01-07T08:45:27.379Z,2.40
2018-01-07T08:46:27.256Z,2.40
2018-01-07T08:47:27.247Z,2.50
2018-01-07T08:48:27.241Z,2.20
2018-01-07T08:49:27.236Z,2.50
2018-01-07T08:50:27.231Z,2.10
2018-01-07T08:51:27.225Z,2.60
2018-01-07T08:52:27.223Z,2.50
2018-01-07T08:53:27.218Z,2.30
2018-01-07T08:54:27.213Z,2.30
2018-01-07T08:55:27.204Z,2.40
2018-01-07T08:56:27.199Z,2.40
2018-01-07T08:57:27.197Z,2.80
2018-01-07T08:58:27.188Z,2.40
2018-01-07T08:59:27.182Z,2.70
2018-01-07T09:00:27.170Z,2.90
2018-01-07T09:01:27.171Z,3.30
2018-01-07T09:02:27.159Z,3.20
2018-01-07T09:03:27.160Z,3.40
2018-01-07T09:04:27.155Z,3.00
2018-01-07T09:05:27.140Z,3.20
2018-01-07T09:06:27.181Z,3.60
2018-01-07T09:07:27.142Z,3.50
2018-01-07T09:08:27.136Z,3.50
2018-01-07T09:09:27.130Z,3.30
2018-01-07T09:10:27.117Z,3.90
2018-01-07T09:11:27.107Z,3.10
2018-01-07T09:12:27.103Z,3.60
2018-01-07T09:13:27.099Z,3.30
2018-01-07T09:14:27.092Z,3.80
2018-01-07T09:15:27.085Z,3.60
2018-01-07T09:16:27.078Z,4.00
2018-01-07T09:17:27.086Z,3.90
2018-01-07T09:18:27.068Z,3.90
2018-01-07T09:19:27.062Z,4.20
2018-01-07T09:20:27.066Z,4.10
2018-01-07T09:21:27.054Z,4.60
2018-01-07T09:22:27.049Z,4.40
2018-01-07T09:23:27.043Z,4.10
2018-01-07T09:24:27.048Z,4.20
2018-01-07T09:25:27.032Z,4.60
2018-01-07T09:26:27.025Z,4.30
2018-01-07T09:27:27.022Z,4.40
2018-01-07T09:28:27.012Z,4.60
2018-01-07T09:29:27.008Z,4.60
2018-01-07T09:30:27.012Z,3.80
2018-01-07T09:31:27.006Z,4.40
2018-01-07T09:32:27.004Z,4.70
2018-01-07T09:33:26.985Z,4.60
2018-01-07T09:34:26.984Z,5.00
2018-01-07T09:35:26.980Z,5.00
2018-01-07T09:36:26.971Z,4.80
2018-01-07T09:37:26.978Z,5.30
2018-01-07T09:38:26.973Z,5.40
2018-01-07T09:39:26.968Z,5.30
2018-01-07T09:40:26.943Z,4.60
2018-01-07T09:41:26.930Z,4.80
2018-01-07T09:42:26.941Z,4.30
2018-01-07T09:43:26.938Z,4.70
2018-01-07T09:44:26.933Z,4.90
2018-01-07T09:45:26.917Z,4.60
2018-01-07T09:46:26.932Z,4.30
2018-01-07T09:47:26.907Z,4.70
2018-01-07T09:48:26.901Z,4.30
2018-01-07T09:49:26.913Z,4.10
2018-01-07T09:50:26.907Z,4.50
2018-01-07T09:51:26.882Z,4.10
2018-01-07T09:52:26.896Z,4.40
2018-01-07T09:53:26.882Z,4.00
2018-01-07T09:54:26.875Z,4.10
2018-01-07T09:55:26.881Z,4.20
2018-01-07T09:56:26.859Z,4.50
2018-01-07T09:57:26.866Z,4.30
2018-01-07T09:58:26.855Z,3.90
2018-01-07T09:59:26.845Z,3.90
2018-01-07T10:00:26.828Z,4.20
2018-01-07T10:01:26.843Z,4.40
2018-01-07T10:02:26.835Z,4.30
2018-01-07T10:03:26.824Z,4.50
2018-01-07T10:04:26.824Z,3.60
2018-01-07T10:05:26.819Z,3.70
2018-01-07T10:06:26.814Z,3.80
2018-01-07T10:07:26.792Z,4.20
2018-01-07T10:08:26.809Z,3.90
2018-01-07T10:09:26.788Z,4.10
2018-01-07T10:10:26.799Z,4.20
2018-01-07T10:11:26.794Z,3.90
2018-01-07T10:12:26.773Z,3.80
2018-01-07T10:13:26.761Z,3.90
2018-01-07T10:14:26.773Z,4.10
2018-01-07T10:15:26.768Z,4.10
2018-01-07T10:16:26.768Z,5.20
2018-01-07T10:17:26.763Z,4.70
2018-01-07T10:18:26.752Z,4.50
2018-01-07T10:19:26.748Z,4.60
2018-01-07T10:20:26.741Z,4.60
2018-01-07T10:21:26.842Z,4.50
2018-01-07T10:22:26.741Z,4.50
2018-01-07T10:23:26.717Z,4.60
2018-01-07T10:24:26.726Z,4.30
2018-01-07T10:25:26.711Z,4.80
2018-01-07T10:26:26.721Z,4.30
2018-01-07T10:27:26.701Z,3.90
2018-01-07T10:28:26.701Z,4.50
2018-01-07T10:29:26.690Z,4.40
2018-01-07T10:30:26.701Z,4.30
2018-01-07T10:31:26.676Z,3.90
2018-01-07T10:32:26.671Z,5.00
2018-01-07T10:33:26.684Z,4.40
2018-01-07T10:34:26.660Z,4.50
2018-01-07T10:35:26.666Z,4.10
2018-01-07T10:36:26.643Z,4.50
2018-01-07T10:37:26.645Z,4.70
2018-01-07T10:38:26.656Z,4.20
2018-01-07T10:39:26.654Z,3.80
2018-01-07T10:40:26.624Z,4.30
2018-01-07T10:41:26.640Z,4.20
2018-01-07T10:42:26.620Z,4.10
2018-01-07T10:43:26.621Z,4.80
2018-01-07T10:44:26.624Z,4.60
2018-01-07T10:45:26.620Z,4.50
2018-01-07T10:46:26.632Z,4.70
2018-01-07T10:47:26.614Z,4.50
2018-01-07T10:48:26.584Z,4.90
2018-01-07T10:49:26.604Z,5.00
2018-01-07T10:50:26.583Z,5.10
2018-01-07T10:51:26.569Z,4.90
2018-01-07T10:52:26.573Z,4.60
2018-01-07T10:53:26.583Z,5.00
2018-01-07T10:54:26.563Z,5.30
2018-01-07T10:55:26.554Z,4.90
2018-01-07T10:56:26.547Z,4.90
2018-01-07T10:57:26.558Z,5.30
2018-01-07T10:58:26.553Z,5.80
2018-01-07T10:59:26.548Z,6.30
2018-01-07T11:00:26.546Z,6.30
2018-01-07T11:01:26.537Z,6.40
2018-01-07T11:02:26.526Z,6.10
2018-01-07T11:03:26.520Z,6.20
2018-01-07T11:04:26.516Z,6.20
2018-01-07T11:05:26.518Z,6.40
2018-01-07T11:06:26.503Z,6.40
2018-01-07T11:07:26.498Z,6.40
2018-01-07T11:08:26.491Z,5.80
2018-01-07T11:09:26.486Z,6.70
2018-01-07T11:10:26.481Z,6.70
2018-01-07T11:11:26.475Z,7.10
2018-01-07T11:12:26.474Z,6.30
2018-01-07T11:13:26.463Z,5.90
2018-01-07T11:14:26.463Z,5.90
2018-01-07T11:15:26.462Z,6.20
2018-01-07T11:16:26.446Z,5.70
2018-01-07T11:17:26.446Z,5.00
2018-01-07T11:18:26.445Z,5.60
2018-01-07T11:19:26.436Z,5.80
2018-01-07T11:20:26.424Z,5.70
2018-01-07T11:21:26.429Z,6.10
2018-01-07T11:22:26.414Z,5.60
2018-01-07T11:23:26.414Z,5.90
2018-01-07T11:24:26.413Z,6.10
2018-01-07T11:25:26.407Z,6.70
2018-01-07T11:26:26.397Z,6.80
2018-01-07T11:27:26.387Z,8.00
2018-01-07T11:28:26.386Z,7.40
2018-01-07T11:29:26.385Z,6.60
2018-01-07T11:30:26.383Z,7.60
2018-01-07T11:31:26.375Z,8.30
2018-01-07T11:32:26.364Z,7.80
2018-01-07T11:33:26.344Z,8.50
2018-01-07T11:34:26.353Z,8.10
2018-01-07T11:35:26.336Z,8.10
2018-01-07T11:36:26.329Z,8.00
2018-01-07T11:37:26.326Z,7.60
2018-01-07T11:38:26.309Z,7.30
2018-01-07T11:39:26.328Z,7.80
2018-01-07T11:40:26.311Z,7.20
2018-01-07T11:41:26.311Z,7.40
2018-01-07T11:42:26.294Z,7.70
2018-01-07T11:43:26.292Z,7.10
2018-01-07T11:44:26.298Z,6.50
2018-01-07T11:45:26.291Z,6.90
2018-01-07T11:46:26.259Z,7.20
2018-01-07T11:47:26.264Z,6.60
2018-01-07T11:48:26.253Z,7.30
2018-01-07T11:49:26.267Z,6.40
2018-01-07T11:50:26.257Z,6.60
2018-01-07T11:51:26.235Z,6.90
2018-01-07T11:52:26.229Z,7.10
2018-01-07T11:53:26.223Z,7.00
2018-01-07T11:54:26.210Z,6.80
2018-01-07T11:55:26.215Z,7.50
2018-01-07T11:56:26.251Z,7.50
2018-01-07T11:57:26.203Z,7.40
2018-01-07T11:58:26.186Z,6.90
2018-01-07T11:59:26.182Z,7.00
2018-01-07T12:00:26.182Z,8.50
2018-01-07T12:01:26.175Z,7.90
2018-01-07T12:02:26.185Z,7.50
2018-01-07T12:03:26.179Z,8.00
2018-01-07T12:04:26.167Z,8.30
2018-01-07T12:05:26.145Z,8.90
2018-01-07T12:06:26.165Z,8.40
2018-01-07T12:07:26.160Z,8.00
2018-01-07T12:08:26.151Z,8.40
2018-01-07T12:09:26.126Z,8.60
2018-01-07T12:10:26.140Z,8.20
2018-01-07T12:11:26.133Z,9.20
2018-01-07T12:12:26.117Z,8.80
2018-01-07T12:13:26.111Z,8.90
2018-01-07T12:14:26.105Z,8.20
2018-01-07T12:15:26.098Z,9.00
2018-01-07T12:16:26.101Z,8.90
2018-01-07T12:17:26.076Z,8.60
2018-01-07T12:18:26.079Z,8.80
2018-01-07T12:19:26.073Z,9.90
2018-01-07T12:20:26.050Z,9.10
2018-01-07T12:21:26.045Z,8.80
2018-01-07T12:22:26.038Z,8.70
2018-01-07T12:23:26.038Z,8.60
2018-01-07T12:24:26.024Z,8.50
2018-01-07T12:25:26.040Z,8.90
2018-01-07T12:26:26.038Z,9.70
2018-01-07T12:27:26.030Z,13.70
2018-01-07T12:28:26.021Z,14.40
2018-01-07T12:29:26.020Z,13.70
2018-01-07T12:30:26.019Z,13.20
2018-01-07T12:31:25.993Z,12.70
2018-01-07T12:32:25.983Z,11.90
2018-01-07T12:33:25.976Z,12.30
2018-01-07T12:34:25.993Z,12.80
2018-01-07T12:35:25.966Z,11.80
2018-01-07T12:36:25.958Z,11.20
2018-01-07T12:37:25.946Z,11.00
2018-01-07T12:38:25.967Z,11.20
2018-01-07T12:39:25.965Z,11.20
2018-01-07T12:40:25.959Z,11.80
2018-01-07T12:41:25.945Z,11.50
2018-01-07T12:42:25.940Z,12.00
2018-01-07T12:43:25.943Z,11.80
2018-01-07T12:44:25.928Z,12.80
2018-01-07T12:45:25.917Z,12.70
2018-01-07T12:46:25.921Z,12.80
2018-01-07T12:47:25.911Z,13.50
2018-01-07T12:48:25.912Z,13.50
2018-01-07T12:49:25.898Z,13.90
2018-01-07T12:50:25.898Z,13.20
2018-01-07T12:51:25.885Z,13.30
2018-01-07T12:52:25.889Z,13.00
2018-01-07T12:53:25.874Z,13.10
2018-01-07T12:54:25.869Z,12.80
2018-01-07T12:55:25.869Z,13.30
2018-01-07T12:56:25.852Z,13.60
2018-01-07T12:57:25.856Z,13.60
2018-01-07T12:58:25.846Z,13.70
2018-01-07T12:59:25.843Z,14.30
2018-01-07T13:00:25.838Z,14.20
2018-01-07T13:01:25.836Z,13.90
2018-01-07T13:02:25.824Z,14.30
2018-01-07T13:03:25.812Z,14.50
2018-01-07T13:04:25.806Z,14.40
2018-01-07T13:05:25.809Z,13.80
2018-01-07T13:06:25.797Z,14.50
2018-01-07T13:07:25.789Z,13.20
2018-01-07T13:08:25.809Z,14.00
2018-01-07T13:09:25.787Z,14.90
2018-01-07T13:10:25.786Z,14.10
2018-01-07T13:11:25.771Z,13.90
2018-01-07T13:12:25.770Z,13.10